createdAt,value
2022-07-27T00:00:25.879Z,1.40
2022-07-27T00:02:51.641Z,1.42
2022-07-27T00:05:15.369Z,1.50
2022-07-27T00:07:39.131Z,1.63
2022-07-27T00:10:02.868Z,1.73
2022-07-27T00:12:26.611Z,1.80
2022-07-27T00:14:51.742Z,1.50
2022-07-27T00:17:15.501Z,1.67
2022-07-27T00:19:39.203Z,1.60
2022-07-27T00:22:02.908Z,1.40
2022-07-27T00:24:26.724Z,1.48
2022-07-27T00:26:50.392Z,1.27
2022-07-27T00:29:14.664Z,1.40
2022-07-27T00:31:40.103Z,1.48
2022-07-27T00:34:03.935Z,1.40
2022-07-27T00:36:27.723Z,1.45
2022-07-27T00:38:51.475Z,1.55
2022-07-27T00:41:15.268Z,1.50
2022-07-27T00:43:53.520Z,1.50
2022-07-27T00:46:17.395Z,1.38
2022-07-27T00:48:42.687Z,1.42
2022-07-27T00:51:06.680Z,1.60
2022-07-27T00:53:30.391Z,1.40
2022-07-27T00:55:54.231Z,1.20
2022-07-27T00:58:18.824Z,1.77
2022-07-27T01:00:42.580Z,1.67
2022-07-27T01:03:09.209Z,1.52
2022-07-27T01:05:43.224Z,1.52
2022-07-27T01:08:08.524Z,1.60
2022-07-27T01:10:32.403Z,1.70
2022-07-27T01:12:56.196Z,1.83
2022-07-27T01:15:20.034Z,1.65
2022-07-27T01:17:44.389Z,1.42
2022-07-27T01:20:09.585Z,1.40
2022-07-27T01:22:34.750Z,1.60
2022-07-27T01:24:58.512Z,1.42
2022-07-27T01:27:23.048Z,1.75
2022-07-27T01:29:46.804Z,1.60
2022-07-27T01:32:10.902Z,1.65
2022-07-27T01:34:34.772Z,1.77
2022-07-27T01:36:58.542Z,1.45
2022-07-27T01:39:23.674Z,1.50
2022-07-27T01:41:48.079Z,1.30
2022-07-27T01:44:12.173Z,1.70
2022-07-27T01:46:36.042Z,1.38
2022-07-27T01:48:59.947Z,1.73
2022-07-27T01:51:23.998Z,1.50
2022-07-27T01:53:47.739Z,1.48
2022-07-27T01:56:14.289Z,1.55
2022-07-27T01:58:38.719Z,1.60
2022-07-27T02:01:02.525Z,1.40
2022-07-27T02:03:26.302Z,1.88
2022-07-27T02:05:50.052Z,1.95
2022-07-27T02:08:13.873Z,1.52
2022-07-27T02:10:58.685Z,1.65
2022-07-27T02:13:23.302Z,1.30
2022-07-27T02:15:47.099Z,1.77
2022-07-27T02:18:29.346Z,2.17
2022-07-27T02:20:56.942Z,1.90
2022-07-27T02:23:20.644Z,1.77
2022-07-27T02:25:44.559Z,1.52
2022-07-27T02:28:09.064Z,1.80
2022-07-27T02:30:34.692Z,1.92
2022-07-27T02:32:58.503Z,2.00
2022-07-27T02:35:22.677Z,1.90
2022-07-27T02:37:46.421Z,1.50
2022-07-27T02:40:12.300Z,1.88
2022-07-27T02:42:35.995Z,2.17
2022-07-27T02:44:59.765Z,1.90
2022-07-27T02:47:24.929Z,1.85
2022-07-27T02:49:48.676Z,1.90
2022-07-27T02:52:12.457Z,1.70
2022-07-27T02:54:36.270Z,1.70
2022-07-27T02:57:02.926Z,1.60
2022-07-27T02:59:26.797Z,1.70
2022-07-27T03:01:51.428Z,1.75
2022-07-27T03:04:17.321Z,1.40
2022-07-27T03:06:41.225Z,1.55
2022-07-27T03:09:05.531Z,1.65
2022-07-27T03:11:29.260Z,1.95
2022-07-27T03:13:53.081Z,1.80
2022-07-27T03:16:16.987Z,1.50
2022-07-27T03:18:40.785Z,1.67
2022-07-27T03:21:06.073Z,2.72
2022-07-27T03:23:32.156Z,2.03
2022-07-27T03:25:55.804Z,1.58
2022-07-27T03:28:19.617Z,1.92
2022-07-27T03:30:43.980Z,2.05
2022-07-27T03:33:07.952Z,2.53
2022-07-27T03:35:31.661Z,2.17
2022-07-27T03:37:56.927Z,2.28
2022-07-27T03:40:21.832Z,1.90
2022-07-27T03:42:46.143Z,2.05
2022-07-27T03:45:11.387Z,1.67
2022-07-27T03:47:35.199Z,1.92
2022-07-27T03:49:58.967Z,1.70
2022-07-27T03:52:23.481Z,7.85
2022-07-27T03:54:49.187Z,6.50
2022-07-27T03:57:12.965Z,5.38
2022-07-27T03:59:36.685Z,3.75
2022-07-27T04:02:01.329Z,4.03
2022-07-27T04:04:25.112Z,2.80
2022-07-27T04:06:49.006Z,2.75
2022-07-27T04:09:14.146Z,3.38
2022-07-27T04:11:50.405Z,2.25
2022-07-27T04:14:15.259Z,2.15
2022-07-27T04:16:39.019Z,2.25
2022-07-27T04:19:02.824Z,1.88
2022-07-27T04:21:27.720Z,2.13
2022-07-27T04:23:57.313Z,2.13
2022-07-27T04:26:21.086Z,1.85
2022-07-27T04:28:46.270Z,1.83
2022-07-27T04:31:10.070Z,1.77
2022-07-27T04:33:33.816Z,1.83
2022-07-27T04:35:57.629Z,1.70
2022-07-27T04:38:21.631Z,1.80
2022-07-27T04:40:45.347Z,1.60
2022-07-27T04:43:09.148Z,1.70
2022-07-27T04:45:34.683Z,1.60
2022-07-27T04:47:58.532Z,1.90
2022-07-27T04:50:22.637Z,1.88
2022-07-27T04:52:46.587Z,1.90
2022-07-27T04:55:11.431Z,1.70
2022-07-27T04:57:35.237Z,1.50
2022-07-27T04:59:59.080Z,2.00
2022-07-27T05:02:26.469Z,1.52
2022-07-27T05:04:50.193Z,1.55
2022-07-27T05:07:14.004Z,1.50
2022-07-27T05:09:37.738Z,1.80
2022-07-27T05:12:01.546Z,1.50
2022-07-27T05:14:25.245Z,1.50
2022-07-27T05:16:49.086Z,1.75
2022-07-27T05:19:14.998Z,1.70
2022-07-27T05:21:39.228Z,1.30
2022-07-27T05:24:03.017Z,1.60
2022-07-27T05:26:26.867Z,1.65
2022-07-27T05:28:50.684Z,2.25
2022-07-27T05:31:14.461Z,2.05
2022-07-27T05:33:38.177Z,1.60
2022-07-27T05:36:03.845Z,1.92
2022-07-27T05:38:32.319Z,1.67
2022-07-27T05:40:56.098Z,1.70
2022-07-27T05:43:19.870Z,1.90
2022-07-27T05:45:43.732Z,1.98
2022-07-27T05:48:07.931Z,1.98
2022-07-27T05:50:31.752Z,1.83
2022-07-27T05:52:58.763Z,1.52
2022-07-27T05:55:22.510Z,1.73
2022-07-27T05:57:46.232Z,1.83
2022-07-27T06:00:12.192Z,1.70
2022-07-27T06:02:35.931Z,2.03
2022-07-27T06:04:59.676Z,2.00
2022-07-27T06:07:41.017Z,1.63
2022-07-27T06:10:08.839Z,1.65
2022-07-27T06:12:32.628Z,1.92
2022-07-27T06:14:56.434Z,1.83
2022-07-27T06:17:20.176Z,2.05
2022-07-27T06:19:43.969Z,1.80
2022-07-27T06:22:07.970Z,1.42
2022-07-27T06:24:31.783Z,1.45
2022-07-27T06:26:56.941Z,1.40
2022-07-27T06:29:20.743Z,1.90
2022-07-27T06:31:44.539Z,1.52
2022-07-27T06:34:11.730Z,1.40
2022-07-27T06:36:35.768Z,1.45
2022-07-27T06:38:59.446Z,1.60
2022-07-27T06:41:23.223Z,1.73
2022-07-27T06:43:48.458Z,1.95
2022-07-27T06:46:12.892Z,1.77
2022-07-27T06:48:37.172Z,2.15
2022-07-27T06:51:01.861Z,1.70
2022-07-27T06:53:25.911Z,1.40
2022-07-27T06:55:49.765Z,1.90
2022-07-27T06:58:14.083Z,1.80
2022-07-27T07:00:39.341Z,1.63
2022-07-27T07:03:05.725Z,1.27
2022-07-27T07:05:29.589Z,1.23
2022-07-27T07:07:54.115Z,1.00
2022-07-27T07:10:18.092Z,1.33
2022-07-27T07:12:42.393Z,1.20
2022-07-27T07:15:08.033Z,1.20
2022-07-27T07:17:33.275Z,1.00
2022-07-27T07:19:57.020Z,1.38
2022-07-27T07:22:20.844Z,1.05
2022-07-27T07:24:44.566Z,1.40
2022-07-27T07:27:08.360Z,1.25
2022-07-27T07:29:32.144Z,0.90
2022-07-27T07:31:56.061Z,0.98
2022-07-27T07:34:21.408Z,1.00
2022-07-27T07:36:46.437Z,1.10
2022-07-27T07:39:10.416Z,1.15
2022-07-27T07:41:36.528Z,1.30
2022-07-27T07:44:00.358Z,0.85
2022-07-27T07:46:24.295Z,0.82
2022-07-27T07:48:48.170Z,1.15
2022-07-27T07:51:13.711Z,1.00
2022-07-27T07:53:41.442Z,1.10
2022-07-27T07:56:06.233Z,0.95
2022-07-27T07:58:30.041Z,1.00
2022-07-27T08:00:53.992Z,1.00
2022-07-27T08:03:18.197Z,1.17
2022-07-27T08:05:42.006Z,0.95
2022-07-27T08:08:07.509Z,0.77
2022-07-27T08:10:31.336Z,0.63
2022-07-27T08:12:57.144Z,1.13
2022-07-27T08:15:21.521Z,1.25
2022-07-27T08:17:58.655Z,1.17
2022-07-27T08:20:24.309Z,1.25
2022-07-27T08:22:48.215Z,1.10
2022-07-27T08:25:14.277Z,1.00
2022-07-27T08:27:40.890Z,1.40
2022-07-27T08:30:06.100Z,0.93
2022-07-27T08:32:30.261Z,1.45
2022-07-27T08:34:54.205Z,1.13
2022-07-27T08:37:18.102Z,1.20
2022-07-27T08:40:36.489Z,1.10
2022-07-27T08:42:27.578Z,0.98
2022-07-27T08:44:51.468Z,0.95
2022-07-27T08:47:16.978Z,1.05
2022-07-27T08:49:43.685Z,1.15
2022-07-27T08:52:10.077Z,1.08
2022-07-27T08:54:33.837Z,0.98
2022-07-27T08:56:57.913Z,1.10
2022-07-27T08:59:23.128Z,1.30
2022-07-27T09:01:47.138Z,1.10
2022-07-27T09:04:11.372Z,1.10
2022-07-27T09:06:43.879Z,0.70
2022-07-27T09:09:07.758Z,1.35
2022-07-27T09:11:32.560Z,0.90
2022-07-27T09:14:03.800Z,1.13
2022-07-27T09:17:14.747Z,1.10
2022-07-27T09:19:17.090Z,1.13
2022-07-27T09:21:44.312Z,1.13
2022-07-27T09:24:23.243Z,1.00
2022-07-27T09:27:03.232Z,0.93
2022-07-27T09:29:36.244Z,1.20
2022-07-27T09:32:01.628Z,0.88
2022-07-27T09:34:33.421Z,0.90
2022-07-27T09:36:59.964Z,1.23
2022-07-27T09:39:27.067Z,0.98
2022-07-27T09:41:53.926Z,1.10
2022-07-27T09:44:31.656Z,1.10
2022-07-27T09:46:55.978Z,1.00
2022-07-27T09:49:33.052Z,1.08
2022-07-27T09:52:00.617Z,1.38
2022-07-27T09:54:26.446Z,1.10
2022-07-27T09:57:01.530Z,1.40
2022-07-27T09:59:25.509Z,1.15
2022-07-27T10:01:54.691Z,1.40
2022-07-27T10:04:19.531Z,1.38
2022-07-27T10:07:01.728Z,1.55
2022-07-27T10:09:27.386Z,1.65
2022-07-27T10:11:51.538Z,1.23
2022-07-27T10:14:16.162Z,1.60
2022-07-27T10:16:41.889Z,1.40
2022-07-27T10:19:19.451Z,1.08
2022-07-27T10:21:48.340Z,1.63
2022-07-27T10:24:17.869Z,1.30
2022-07-27T10:26:44.036Z,1.45
2022-07-27T10:29:18.893Z,1.60
2022-07-27T10:31:45.180Z,1.80
2022-07-27T10:34:12.509Z,1.63
2022-07-27T10:36:50.974Z,1.58
2022-07-27T10:39:36.226Z,1.77
2022-07-27T10:42:25.873Z,1.20
2022-07-27T10:44:59.650Z,1.75
2022-07-27T10:47:36.007Z,1.30
2022-07-27T10:50:32.663Z,1.33
2022-07-27T10:53:02.100Z,1.30
2022-07-27T10:55:59.330Z,1.70
2022-07-27T10:58:50.379Z,1.25
2022-07-27T11:01:15.864Z,1.17
2022-07-27T11:03:43.895Z,1.35
2022-07-27T11:09:38.698Z,1.10
2022-07-27T11:11:43.182Z,1.17
2022-07-27T11:14:07.129Z,1.00
2022-07-27T11:16:32.715Z,1.13
2022-07-27T11:19:02.598Z,1.05
2022-07-27T11:21:30.093Z,1.10
2022-07-27T11:23:58.537Z,1.23
2022-07-27T11:26:24.248Z,1.08
2022-07-27T11:28:48.076Z,1.30
2022-07-27T11:31:23.338Z,1.20
2022-07-27T11:34:00.038Z,0.95
2022-07-27T11:36:36.637Z,1.13
2022-07-27T11:39:01.966Z,1.00
2022-07-27T11:41:48.047Z,1.20
2022-07-27T11:44:14.951Z,0.85
2022-07-27T11:46:44.009Z,1.15
2022-07-27T11:49:10.507Z,1.10
2022-07-27T11:51:35.868Z,1.10
2022-07-27T11:54:04.073Z,0.90
2022-07-27T11:56:30.857Z,1.20
2022-07-27T11:59:11.726Z,1.30
2022-07-27T12:01:39.403Z,1.20
2022-07-27T12:04:24.393Z,1.30
2022-07-27T12:06:59.803Z,1.13
2022-07-27T12:09:26.686Z,1.17
2022-07-27T12:12:10.122Z,1.00
2022-07-27T12:14:39.185Z,1.20
2022-07-27T12:17:13.092Z,1.33
2022-07-27T12:19:38.345Z,1.35
2022-07-27T12:22:04.066Z,1.08
2022-07-27T12:24:40.067Z,1.10
2022-07-27T12:27:08.978Z,1.33
2022-07-27T12:29:34.210Z,0.95
2022-07-27T12:32:05.729Z,1.10
2022-07-27T12:34:36.574Z,1.00
2022-07-27T12:37:01.614Z,1.00
2022-07-27T12:39:29.993Z,0.95
2022-07-27T12:42:07.806Z,1.33
2022-07-27T12:44:35.265Z,1.10
2022-07-27T12:47:02.050Z,0.98
2022-07-27T12:49:29.540Z,1.10
2022-07-27T12:51:53.543Z,1.33
2022-07-27T12:54:17.430Z,0.80
2022-07-27T12:56:41.958Z,1.35
2022-07-27T12:59:07.265Z,0.98
2022-07-27T13:01:31.089Z,1.25
2022-07-27T13:03:54.942Z,0.90
2022-07-27T13:06:18.799Z,1.27
2022-07-27T13:08:42.988Z,1.23
2022-07-27T13:11:06.858Z,1.20
2022-07-27T13:13:30.633Z,1.00
2022-07-27T13:15:56.071Z,1.25
2022-07-27T13:18:23.454Z,1.00
2022-07-27T13:20:47.845Z,1.42
2022-07-27T13:23:11.654Z,1.02
2022-07-27T13:25:38.413Z,1.15
2022-07-27T13:28:07.169Z,1.00
2022-07-27T13:30:31.553Z,1.20
2022-07-27T13:32:56.843Z,1.30
2022-07-27T13:35:20.636Z,1.15
2022-07-27T13:37:45.109Z,0.98
2022-07-27T13:40:10.641Z,1.20
2022-07-27T13:42:34.396Z,1.20
2022-07-27T13:45:09.137Z,1.10
2022-07-27T13:47:34.813Z,1.30
2022-07-27T13:50:00.340Z,1.08
2022-07-27T13:52:25.344Z,1.23
2022-07-27T13:54:49.109Z,1.15
2022-07-27T13:57:12.969Z,1.20
2022-07-27T13:59:36.700Z,1.25
2022-07-27T14:02:00.766Z,1.50
2022-07-27T14:04:25.042Z,3.08
2022-07-27T14:06:51.061Z,1.20
2022-07-27T14:09:17.730Z,1.20
2022-07-27T14:11:52.794Z,1.17
2022-07-27T14:14:17.011Z,1.30
2022-07-27T14:16:48.139Z,1.10
2022-07-27T14:19:12.897Z,1.13
2022-07-27T14:21:36.801Z,1.10
2022-07-27T14:24:02.397Z,1.20
2022-07-27T14:26:26.157Z,1.10
2022-07-27T14:28:50.503Z,1.05
2022-07-27T14:31:14.647Z,1.30
2022-07-27T14:33:39.883Z,0.80
2022-07-27T14:36:03.811Z,1.00
2022-07-27T14:38:30.838Z,0.93
2022-07-27T14:40:56.659Z,1.10
2022-07-27T14:43:20.564Z,1.00
2022-07-27T14:45:46.379Z,1.00
2022-07-27T14:48:10.532Z,0.93
2022-07-27T14:50:35.121Z,0.90
2022-07-27T14:52:58.945Z,0.90
2022-07-27T14:55:22.690Z,1.23
2022-07-27T14:57:48.563Z,1.00
2022-07-27T15:00:14.490Z,0.90
2022-07-27T15:02:38.776Z,1.17
2022-07-27T15:05:02.517Z,1.08
2022-07-27T15:07:26.254Z,0.85
2022-07-27T15:09:49.995Z,1.20
2022-07-27T15:12:13.691Z,1.20
2022-07-27T15:14:39.794Z,0.88
2022-07-27T15:17:04.056Z,1.05
2022-07-27T15:19:29.940Z,0.90
2022-07-27T15:21:54.071Z,1.00
2022-07-27T15:24:19.495Z,0.93
2022-07-27T15:26:43.564Z,0.98
2022-07-27T15:29:10.021Z,1.30
2022-07-27T15:31:40.352Z,1.10
2022-07-27T15:34:04.168Z,0.85
2022-07-27T15:36:32.091Z,1.00
2022-07-27T15:38:57.649Z,1.27
2022-07-27T15:41:21.408Z,1.05
2022-07-27T15:43:45.237Z,0.93
2022-07-27T15:46:09.541Z,0.98
2022-07-27T15:48:36.290Z,0.98
2022-07-27T15:51:00.100Z,0.90
2022-07-27T15:53:24.427Z,1.08
2022-07-27T15:55:49.164Z,0.98
2022-07-27T15:58:17.982Z,1.17
2022-07-27T16:00:42.056Z,1.10
2022-07-27T16:03:06.094Z,1.00
2022-07-27T16:05:31.538Z,0.90
2022-07-27T16:07:55.956Z,0.90
2022-07-27T16:10:19.680Z,0.85
2022-07-27T16:12:43.409Z,1.13
2022-07-27T16:15:08.544Z,0.88
2022-07-27T16:17:32.307Z,0.93
2022-07-27T16:19:56.081Z,0.80
2022-07-27T16:22:21.225Z,1.00
2022-07-27T16:24:44.949Z,0.90
2022-07-27T16:27:09.762Z,1.08
2022-07-27T16:29:34.572Z,1.10
2022-07-27T16:31:59.260Z,1.00
2022-07-27T16:34:23.051Z,1.30
2022-07-27T16:36:47.189Z,0.90
2022-07-27T16:39:12.668Z,1.10
2022-07-27T16:41:36.619Z,0.75
2022-07-27T16:44:00.316Z,1.10
2022-07-27T16:46:24.074Z,1.00
2022-07-27T16:48:48.208Z,1.25
2022-07-27T16:51:13.825Z,1.05
2022-07-27T16:53:41.570Z,1.05
2022-07-27T16:56:07.497Z,1.40
2022-07-27T16:58:31.318Z,1.30
2022-07-27T17:00:55.642Z,0.90
2022-07-27T17:03:19.343Z,1.15
2022-07-27T17:05:43.381Z,1.30
2022-07-27T17:08:11.035Z,1.20
2022-07-27T17:10:34.820Z,1.13
2022-07-27T17:13:00.015Z,1.00
2022-07-27T17:15:23.719Z,1.30
2022-07-27T17:17:47.691Z,1.10
2022-07-27T17:20:13.002Z,1.10
2022-07-27T17:22:36.804Z,1.08
2022-07-27T17:25:00.627Z,0.98
2022-07-27T17:27:24.330Z,1.30
2022-07-27T17:29:49.706Z,1.20
2022-07-27T17:32:13.560Z,1.50
2022-07-27T17:34:38.356Z,1.05
2022-07-27T17:37:02.093Z,1.35
2022-07-27T17:39:25.817Z,1.35
2022-07-27T17:41:49.960Z,1.20
2022-07-27T17:44:13.799Z,1.25
2022-07-27T17:46:39.186Z,1.20
2022-07-27T17:49:03.384Z,1.20
2022-07-27T17:51:27.216Z,4.30
2022-07-27T17:53:51.054Z,2.70
2022-07-27T17:56:14.944Z,3.72
2022-07-27T17:58:38.995Z,2.08
2022-07-27T18:01:02.820Z,1.95
2022-07-27T18:03:28.107Z,2.17
2022-07-27T18:05:51.856Z,1.70
2022-07-27T18:08:15.632Z,1.45
2022-07-27T18:10:39.708Z,1.50
2022-07-27T18:13:04.646Z,1.60
2022-07-27T18:15:46.211Z,1.60
2022-07-27T18:18:10.153Z,1.88
2022-07-27T18:20:35.922Z,1.60
2022-07-27T18:22:59.722Z,1.80
2022-07-27T18:25:23.551Z,1.52
2022-07-27T18:27:48.319Z,1.50
2022-07-27T18:30:13.308Z,1.75
2022-07-27T18:32:37.147Z,2.03
2022-07-27T18:35:01.571Z,2.53
2022-07-27T18:37:27.161Z,2.60
2022-07-27T18:39:50.897Z,2.10
2022-07-27T18:42:14.681Z,2.10
2022-07-27T18:44:39.085Z,2.55
2022-07-27T18:47:03.218Z,1.75
2022-07-27T18:49:27.109Z,2.03
2022-07-27T18:51:51.096Z,2.13
2022-07-27T18:54:16.240Z,2.10
2022-07-27T18:56:40.906Z,1.90
2022-07-27T18:59:04.644Z,1.90
2022-07-27T19:01:28.477Z,1.90
2022-07-27T19:03:52.293Z,2.20
2022-07-27T19:06:18.028Z,1.48
2022-07-27T19:08:44.326Z,1.70
2022-07-27T19:11:10.441Z,1.88
2022-07-27T19:13:34.267Z,1.80
2022-07-27T19:15:59.567Z,1.88
2022-07-27T19:18:25.229Z,1.90
2022-07-27T19:20:49.055Z,2.08
2022-07-27T19:23:13.448Z,1.98
2022-07-27T19:25:37.197Z,2.10
2022-07-27T19:28:02.939Z,1.92
2022-07-27T19:30:26.777Z,1.70
2022-07-27T19:32:50.518Z,1.90
2022-07-27T19:35:15.372Z,1.65
2022-07-27T19:37:39.816Z,1.70
2022-07-27T19:40:20.190Z,1.67
2022-07-27T19:42:47.552Z,2.20
2022-07-27T19:45:12.850Z,2.20
2022-07-27T19:47:36.981Z,1.80
2022-07-27T19:50:02.019Z,2.10
2022-07-27T19:52:25.784Z,1.73
2022-07-27T19:54:49.513Z,2.33
2022-07-27T19:57:13.259Z,2.30
2022-07-27T19:59:55.611Z,2.45
2022-07-27T20:02:21.957Z,2.85
2022-07-27T20:04:46.063Z,2.38
2022-07-27T20:07:10.092Z,3.38
2022-07-27T20:09:34.007Z,2.17
2022-07-27T20:12:00.403Z,2.03
2022-07-27T20:14:24.469Z,1.77
2022-07-27T20:16:48.381Z,1.70
2022-07-27T20:19:13.823Z,1.70
2022-07-27T20:21:40.434Z,1.90
2022-07-27T20:24:04.523Z,1.88
2022-07-27T20:26:28.325Z,1.98
2022-07-27T20:28:52.096Z,1.50
2022-07-27T20:31:15.920Z,1.80
2022-07-27T20:33:39.761Z,1.98
2022-07-27T20:36:05.160Z,1.67
2022-07-27T20:38:28.964Z,2.45
2022-07-27T20:40:52.715Z,1.70
2022-07-27T20:43:16.464Z,2.28
2022-07-27T20:45:40.262Z,1.80
2022-07-27T20:48:04.041Z,2.50
2022-07-27T20:50:28.308Z,1.90
2022-07-27T20:52:53.476Z,2.13
2022-07-27T20:55:17.324Z,2.10
2022-07-27T20:57:41.479Z,1.98
2022-07-27T21:00:07.823Z,1.70
2022-07-27T21:02:31.792Z,1.90
2022-07-27T21:04:55.665Z,2.00
2022-07-27T21:07:20.883Z,1.60
2022-07-27T21:09:46.175Z,1.95
2022-07-27T21:12:10.150Z,1.95
2022-07-27T21:14:33.950Z,2.03
2022-07-27T21:16:57.812Z,1.73
2022-07-27T21:19:22.577Z,1.60
2022-07-27T21:21:46.276Z,1.65
2022-07-27T21:24:16.529Z,1.95
2022-07-27T21:26:43.437Z,2.00
2022-07-27T21:29:07.332Z,2.70
2022-07-27T21:31:32.292Z,2.22
2022-07-27T21:33:56.062Z,2.15
2022-07-27T21:36:19.941Z,2.25
2022-07-27T21:38:43.678Z,2.55
2022-07-27T21:41:07.548Z,1.67
2022-07-27T21:43:33.283Z,2.10
2022-07-27T21:45:57.123Z,2.50
2022-07-27T21:48:20.868Z,2.33
2022-07-27T21:50:44.649Z,2.10
2022-07-27T21:53:08.465Z,1.83
2022-07-27T21:55:33.633Z,2.17
2022-07-27T21:57:57.354Z,2.30
2022-07-27T22:00:25.947Z,2.08
2022-07-27T22:02:50.222Z,2.53
2022-07-27T22:05:14.023Z,1.98
2022-07-27T22:07:37.761Z,3.05
2022-07-27T22:10:01.577Z,2.17
2022-07-27T22:12:25.362Z,1.83
2022-07-27T22:14:49.184Z,2.55
2022-07-27T22:17:14.348Z,2.22
2022-07-27T22:19:38.158Z,2.22
2022-07-27T22:22:01.870Z,2.05
2022-07-27T22:24:25.692Z,2.28
2022-07-27T22:26:50.406Z,2.15
2022-07-27T22:29:14.153Z,2.35
2022-07-27T22:31:37.878Z,2.38
2022-07-27T22:34:03.169Z,2.20
2022-07-27T22:36:26.953Z,2.22
2022-07-27T22:38:50.787Z,2.45
2022-07-27T22:41:14.605Z,2.25
2022-07-27T22:43:38.853Z,2.35
2022-07-27T22:46:04.770Z,2.15
2022-07-27T22:48:28.799Z,2.50
2022-07-27T22:50:53.981Z,2.35
2022-07-27T22:53:18.368Z,2.22
2022-07-27T22:55:42.574Z,1.90
2022-07-27T22:58:06.404Z,2.20
2022-07-27T23:00:30.870Z,2.00
2022-07-27T23:02:54.706Z,2.25
2022-07-27T23:05:18.373Z,2.03
2022-07-27T23:07:43.609Z,2.50
2022-07-27T23:10:30.678Z,2.50
2022-07-27T23:12:54.777Z,1.90
2022-07-27T23:15:18.505Z,2.10
2022-07-27T23:17:42.251Z,1.98
2022-07-27T23:20:07.559Z,2.33
2022-07-27T23:22:31.565Z,1.92
2022-07-27T23:24:59.995Z,2.20
2022-07-27T23:27:23.749Z,2.03
2022-07-27T23:29:47.490Z,2.50
2022-07-27T23:32:11.268Z,2.45
2022-07-27T23:34:35.690Z,2.40
2022-07-27T23:36:59.410Z,2.45
2022-07-27T23:39:23.191Z,1.92
2022-07-27T23:41:50.172Z,2.25
2022-07-27T23:44:14.426Z,2.17
2022-07-27T23:46:38.502Z,2.38
2022-07-27T23:49:02.435Z,2.00
2022-07-27T23:51:26.292Z,2.33
2022-07-27T23:53:50.138Z,2.35
2022-07-27T23:56:13.936Z,2.10
2022-07-27T23:58:39.061Z,2.42
